createdAt,value
2022-08-12T00:02:02.810Z,100307.63
2022-08-12T00:04:52.571Z,100314.19
2022-08-12T00:07:39.279Z,100305.47
2022-08-12T00:10:25.019Z,100300.44
2022-08-12T00:13:12.157Z,100303.06
2022-08-12T00:15:57.814Z,100305.91
2022-08-12T00:18:43.889Z,100304.31
2022-08-12T00:21:30.561Z,100299.28
2022-08-12T00:24:16.854Z,100303.94
2022-08-12T00:27:02.594Z,100294.41
2022-08-12T00:29:48.828Z,100295.19
2022-08-12T00:32:36.357Z,100294.59
2022-08-12T00:35:36.492Z,100296.66
2022-08-12T00:38:23.117Z,100294.78
2022-08-12T00:41:09.278Z,100296.66
2022-08-12T00:43:36.323Z,100293.66
2022-08-12T00:46:22.405Z,100297.88
2022-08-12T00:48:49.919Z,100293.94
2022-08-12T00:51:17.421Z,100303.09
2022-08-12T00:53:44.335Z,100296.28
2022-08-12T00:56:11.810Z,100297.78
2022-08-12T00:58:45.803Z,100296.44
2022-08-12T01:01:14.499Z,100291.38
2022-08-12T01:04:00.425Z,100285.56
2022-08-12T01:06:46.503Z,100284.22
2022-08-12T01:09:37.606Z,100289.19
2022-08-12T01:12:05.876Z,100283.84
2022-08-12T01:14:33.332Z,100296.53
2022-08-12T01:17:00.138Z,100285.16
2022-08-12T01:19:27.012Z,100288.00
2022-08-12T01:22:12.808Z,100282.94
2022-08-12T01:25:00.314Z,100282.72
2022-08-12T01:27:28.960Z,100282.41
2022-08-12T01:29:57.480Z,100282.41
2022-08-12T01:32:26.901Z,100281.59
2022-08-12T01:34:54.104Z,100269.91
2022-08-12T01:37:24.401Z,100273.34
2022-08-12T01:40:33.207Z,100275.97
2022-08-12T01:42:46.678Z,100278.31
2022-08-12T01:45:14.207Z,100269.06
2022-08-12T01:47:49.958Z,100272.41
2022-08-12T01:50:31.858Z,100268.75
2022-08-12T01:53:05.980Z,100272.41
2022-08-12T01:55:34.589Z,100269.25
2022-08-12T01:58:15.056Z,100267.72
2022-08-12T02:00:55.518Z,100261.63
2022-08-12T02:03:53.728Z,100257.97
2022-08-12T02:06:52.148Z,100256.53
2022-08-12T02:09:40.453Z,100252.84
2022-08-12T02:12:18.758Z,100263.84
2022-08-12T02:14:48.551Z,100252.28
2022-08-12T02:17:55.687Z,100253.31
2022-08-12T02:20:43.872Z,100250.13
2022-08-12T02:23:16.540Z,100248.53
2022-08-12T02:25:44.668Z,100247.97
2022-08-12T02:28:11.841Z,100246.94
2022-08-12T02:30:42.390Z,100244.25
2022-08-12T02:33:09.966Z,100240.34
2022-08-12T02:35:37.702Z,100237.88
2022-08-12T02:38:07.103Z,100239.22
2022-08-12T02:40:36.339Z,100238.91
2022-08-12T02:43:05.804Z,100229.72
2022-08-12T02:45:42.978Z,100238.63
2022-08-12T02:48:11.049Z,100232.00
2022-08-12T02:50:42.268Z,100230.44
2022-08-12T02:53:09.303Z,100231.91
2022-08-12T02:55:36.656Z,100239.78
2022-08-12T02:58:09.208Z,100238.22
2022-08-12T03:00:40.075Z,100240.84
2022-08-12T03:03:08.497Z,100239.78
2022-08-12T03:05:44.198Z,100236.41
2022-08-12T03:08:22.340Z,100234.00
2022-08-12T03:11:01.746Z,100229.84
2022-08-12T03:13:29.444Z,100236.72
2022-08-12T03:15:56.533Z,100232.72
2022-08-12T03:18:28.964Z,100230.59
2022-08-12T03:20:58.277Z,100232.41
2022-08-12T03:23:30.373Z,100237.91
2022-08-12T03:26:02.419Z,100233.72
2022-08-12T03:28:49.425Z,100237.59
2022-08-12T03:31:30.674Z,100234.66
2022-08-12T03:34:01.881Z,100241.50
2022-08-12T03:36:31.655Z,100235.91
2022-08-12T03:39:18.227Z,100238.53
2022-08-12T03:41:55.420Z,100235.38
2022-08-12T03:44:49.704Z,100233.56
2022-08-12T03:47:42.448Z,100227.50
2022-08-12T03:50:28.877Z,100227.50
2022-08-12T03:53:14.937Z,100240.63
2022-08-12T03:56:00.709Z,100235.91
2022-08-12T03:58:46.742Z,100233.00
2022-08-12T04:01:13.739Z,100237.44
2022-08-12T04:03:53.365Z,100233.56
2022-08-12T04:06:34.409Z,100233.56
2022-08-12T04:09:16.627Z,100233.84
2022-08-12T04:12:03.339Z,100243.53
2022-08-12T04:14:33.280Z,100243.53
2022-08-12T04:17:00.707Z,100242.53
2022-08-12T04:19:27.811Z,100250.47
2022-08-12T04:22:01.410Z,100252.88
2022-08-12T04:24:31.863Z,100253.97
2022-08-12T04:26:59.266Z,100256.59
2022-08-12T04:30:21.084Z,100255.63
2022-08-12T04:32:14.252Z,100261.84
2022-08-12T04:34:44.129Z,100260.78
2022-08-12T04:37:12.639Z,100265.00
2022-08-12T04:39:40.216Z,100265.00
2022-08-12T04:42:07.644Z,100267.97
2022-08-12T04:44:34.489Z,100272.78
2022-08-12T04:47:01.375Z,100277.34
2022-08-12T04:49:28.755Z,100281.16
2022-08-12T04:51:59.457Z,100281.72
2022-08-12T04:54:27.506Z,100279.19
2022-08-12T04:57:03.487Z,100287.28
2022-08-12T04:59:31.751Z,100288.28
2022-08-12T05:02:16.976Z,100291.56
2022-08-12T05:04:48.724Z,100295.88
2022-08-12T05:07:15.842Z,100290.47
2022-08-12T05:09:59.892Z,100288.03
2022-08-12T05:12:37.262Z,100290.53
2022-08-12T05:15:19.595Z,100297.13
2022-08-12T05:17:56.147Z,100297.00
2022-08-12T05:20:26.937Z,100297.53
2022-08-12T05:23:12.154Z,100291.16
2022-08-12T05:27:35.645Z,100299.38
2022-08-12T05:30:07.198Z,100301.00
2022-08-12T05:32:36.556Z,100313.66
2022-08-12T05:35:06.620Z,100308.16
2022-08-12T05:37:34.921Z,100312.69
2022-08-12T05:40:06.807Z,100305.03
2022-08-12T05:42:35.631Z,100302.91
2022-08-12T05:45:02.429Z,100303.94
2022-08-12T05:47:52.619Z,100301.31
2022-08-12T05:50:17.340Z,100311.91
2022-08-12T05:52:44.157Z,100316.09
2022-08-12T05:55:11.730Z,100315.53
2022-08-12T05:57:39.568Z,100315.56
2022-08-12T06:00:06.885Z,100320.34
2022-08-12T06:02:38.995Z,100311.38
2022-08-12T06:05:10.561Z,100306.34
2022-08-12T06:07:59.674Z,100313.19
2022-08-12T06:10:32.535Z,100311.59
2022-08-12T06:13:03.301Z,100314.50
2022-08-12T06:15:30.842Z,100311.03
2022-08-12T06:18:14.096Z,100307.66
2022-08-12T06:20:47.658Z,100301.25
2022-08-12T06:23:15.397Z,100305.94
2022-08-12T06:25:43.702Z,100308.44
2022-08-12T06:28:19.579Z,100308.84
2022-08-12T06:31:02.619Z,100300.75
2022-08-12T06:33:59.640Z,100302.78
2022-08-12T06:36:23.325Z,100301.66
2022-08-12T06:38:51.076Z,100297.66
2022-08-12T06:41:37.555Z,100315.66
2022-08-12T06:44:09.104Z,100303.47
2022-08-12T06:46:39.485Z,100315.72
2022-08-12T06:49:06.995Z,100312.41
2022-08-12T06:51:34.289Z,100307.44
2022-08-12T06:54:01.433Z,100294.56
2022-08-12T06:57:01.844Z,100312.91
2022-08-12T06:59:17.585Z,100313.59
2022-08-12T07:01:51.156Z,100319.09
2022-08-12T07:04:37.328Z,100320.41
2022-08-12T07:07:05.898Z,100321.13
2022-08-12T07:10:06.704Z,100325.44
2022-08-12T07:12:20.049Z,100330.94
2022-08-12T07:14:51.716Z,100329.22
2022-08-12T07:17:18.919Z,100316.22
2022-08-12T07:19:48.478Z,100327.91
2022-08-12T07:22:16.396Z,100318.16
2022-08-12T07:24:43.442Z,100316.63
2022-08-12T07:27:10.240Z,100319.75
2022-08-12T07:30:03.405Z,100319.28
2022-08-12T07:32:25.947Z,100320.22
2022-08-12T07:34:56.703Z,100324.66
2022-08-12T07:37:23.670Z,100325.09
2022-08-12T07:39:59.216Z,100337.91
2022-08-12T07:42:28.798Z,100314.63
2022-08-12T07:44:56.801Z,100322.22
2022-08-12T07:47:24.418Z,100314.84
2022-08-12T07:50:04.325Z,100313.19
2022-08-12T07:52:47.178Z,100322.69
2022-08-12T07:55:16.568Z,100326.03
2022-08-12T07:57:55.895Z,100326.94
2022-08-12T08:00:23.827Z,100336.38
2022-08-12T08:02:54.591Z,100335.97
2022-08-12T08:05:22.338Z,100336.13
2022-08-12T08:07:49.574Z,100334.03
2022-08-12T08:10:16.840Z,100335.91
2022-08-12T08:13:04.406Z,100351.22
2022-08-12T08:16:01.146Z,100332.84
2022-08-12T08:18:26.620Z,100342.63
2022-08-12T08:20:55.642Z,100342.78
2022-08-12T08:23:34.972Z,100346.75
2022-08-12T08:26:02.650Z,100346.47
2022-08-12T08:28:29.523Z,100349.13
2022-08-12T08:30:56.356Z,100337.81
2022-08-12T08:34:05.104Z,100330.22
2022-08-12T08:36:23.571Z,100321.72
2022-08-12T08:38:53.246Z,100330.66
2022-08-12T08:42:15.824Z,100333.56
2022-08-12T08:44:30.605Z,100325.25
2022-08-12T08:46:57.511Z,100319.41
2022-08-12T08:49:25.773Z,100332.16
2022-08-12T08:51:53.069Z,100323.66
2022-08-12T08:54:24.836Z,100325.63
2022-08-12T08:56:52.760Z,100326.25
2022-08-12T08:59:21.064Z,100325.16
2022-08-12T09:01:48.903Z,100316.81
2022-08-12T09:05:07.545Z,100322.00
2022-08-12T09:07:17.052Z,100317.50
2022-08-12T09:10:02.651Z,100325.00
2022-08-12T09:12:54.643Z,100322.78
2022-08-12T09:18:13.108Z,100304.91
2022-08-12T09:20:42.385Z,100314.63
2022-08-12T09:23:58.735Z,100307.72
2022-08-12T09:26:04.058Z,100314.19
2022-08-12T09:28:33.531Z,100309.13
2022-08-12T09:31:01.132Z,100304.88
2022-08-12T09:34:25.168Z,100293.31
2022-08-12T09:36:31.358Z,100295.00
2022-08-12T09:40:05.288Z,100303.66
2022-08-12T09:42:40.805Z,100302.09
2022-08-12T09:45:22.742Z,100295.50
2022-08-12T09:47:59.988Z,100289.53
2022-08-12T09:50:28.237Z,100290.31
2022-08-12T09:53:05.976Z,100289.69
2022-08-12T09:56:05.727Z,100285.16
2022-08-12T09:58:56.936Z,100274.22
2022-08-12T10:01:23.346Z,100268.13
2022-08-12T10:04:03.697Z,100265.19
2022-08-12T10:06:36.333Z,100272.59
2022-08-12T10:09:05.494Z,100265.13
2022-08-12T10:12:09.917Z,100265.44
2022-08-12T10:14:38.258Z,100256.94
2022-08-12T10:17:08.933Z,100258.91
2022-08-12T10:19:37.931Z,100253.78
2022-08-12T10:22:16.648Z,100256.47
2022-08-12T10:25:04.806Z,100253.72
2022-08-12T10:28:07.050Z,100253.63
2022-08-12T10:30:44.012Z,100247.69
2022-08-12T10:33:19.080Z,100244.22
2022-08-12T10:35:58.257Z,100241.16
2022-08-12T10:38:35.453Z,100231.44
2022-08-12T10:41:57.483Z,100236.69
2022-08-12T10:44:17.775Z,100228.44
2022-08-12T10:46:49.260Z,100229.16
2022-08-12T10:50:02.315Z,100226.25
2022-08-12T10:52:34.876Z,100215.28
2022-08-12T10:54:56.253Z,100226.50
2022-08-12T10:58:15.021Z,100215.94
2022-08-12T11:00:30.843Z,100216.38
2022-08-12T11:04:23.173Z,100201.97
2022-08-12T11:07:05.006Z,100210.16
2022-08-12T11:08:42.949Z,100206.53
2022-08-12T11:11:27.794Z,100211.53
2022-08-12T11:14:05.138Z,100212.75
2022-08-12T11:16:33.418Z,100200.50
2022-08-12T11:19:02.870Z,100208.09
2022-08-12T11:21:56.071Z,100213.81
2022-08-12T11:24:30.791Z,100197.63
2022-08-12T11:27:00.151Z,100200.91
2022-08-12T11:29:28.121Z,100206.69
2022-08-12T11:32:14.863Z,100195.34
2022-08-12T11:34:52.451Z,100189.25
2022-08-12T11:37:58.139Z,100188.81
2022-08-12T11:40:10.539Z,100189.50
2022-08-12T11:42:45.922Z,100190.41
2022-08-12T11:45:16.289Z,100193.22
2022-08-12T11:47:44.008Z,100190.06
2022-08-12T11:50:11.736Z,100188.53
2022-08-12T11:52:56.836Z,100194.09
2022-08-12T11:55:25.076Z,100191.16
2022-08-12T11:58:39.366Z,100183.59
2022-08-12T12:03:45.639Z,100169.06
2022-08-12T12:06:17.972Z,100171.78
2022-08-12T12:08:50.518Z,100167.97
2022-08-12T12:11:18.875Z,100173.59
2022-08-12T12:14:06.342Z,100175.31
2022-08-12T12:16:33.772Z,100159.16
2022-08-12T12:19:05.688Z,100163.16
2022-08-12T12:21:48.712Z,100153.91
2022-08-12T12:24:21.292Z,100148.63
2022-08-12T12:27:00.078Z,100150.84
2022-08-12T12:30:18.700Z,100146.22
2022-08-12T12:32:53.331Z,100142.28
2022-08-12T12:36:19.904Z,100144.81
2022-08-12T12:38:12.095Z,100151.38
2022-08-12T12:40:41.060Z,100131.03
2022-08-12T12:43:08.762Z,100136.66
2022-08-12T12:45:36.696Z,100136.47
2022-08-12T12:48:08.354Z,100133.50
2022-08-12T12:50:42.384Z,100121.44
2022-08-12T12:54:06.067Z,100130.50
2022-08-12T12:56:05.317Z,100125.81
2022-08-12T12:58:34.133Z,100128.00
2022-08-12T13:01:04.794Z,100115.63
2022-08-12T13:03:55.385Z,100115.16
2022-08-12T13:06:30.106Z,100120.94
2022-08-12T13:09:02.482Z,100112.22
2022-08-12T13:11:40.668Z,100110.50
2022-08-12T13:14:28.875Z,100110.22
2022-08-12T13:17:06.163Z,100119.00
2022-08-12T13:19:46.799Z,100111.31
2022-08-12T13:22:20.310Z,100114.47
2022-08-12T13:24:54.774Z,100115.88
2022-08-12T13:27:28.432Z,100118.53
2022-08-12T13:30:06.549Z,100117.56
2022-08-12T13:32:37.291Z,100107.28
2022-08-12T13:35:20.328Z,100099.56
2022-08-12T13:37:54.886Z,100102.84
2022-08-12T13:40:33.427Z,100101.47
2022-08-12T13:43:01.990Z,100083.78
2022-08-12T13:45:30.390Z,100095.38
2022-08-12T13:48:00.150Z,100085.69
2022-08-12T13:50:37.770Z,100101.97
2022-08-12T13:53:23.436Z,100096.22
2022-08-12T13:55:59.617Z,100097.78
2022-08-12T13:58:30.279Z,100091.03
2022-08-12T14:00:58.475Z,100091.16
2022-08-12T14:03:28.229Z,100091.66
2022-08-12T14:05:59.566Z,100090.84
2022-08-12T14:08:34.507Z,100088.69
2022-08-12T14:11:02.343Z,100083.50
2022-08-12T14:14:03.404Z,100086.47
2022-08-12T14:16:47.084Z,100080.63
2022-08-12T14:19:10.460Z,100079.25
2022-08-12T14:22:01.078Z,100082.22
2022-08-12T14:24:40.918Z,100077.25
2022-08-12T14:27:10.443Z,100078.97
2022-08-12T14:30:04.847Z,100075.50
2022-08-12T14:32:35.628Z,100078.75
2022-08-12T14:35:04.010Z,100071.88
2022-08-12T14:37:53.016Z,100066.53
2022-08-12T14:40:18.516Z,100064.50
2022-08-12T14:42:46.932Z,100063.25
2022-08-12T14:45:14.051Z,100057.16
2022-08-12T14:47:58.401Z,100050.56
2022-08-12T14:50:41.598Z,100055.59
2022-08-12T14:55:36.157Z,100047.63
2022-08-12T14:59:23.668Z,100042.59
2022-08-12T15:01:54.489Z,100041.97
2022-08-12T15:04:28.724Z,100033.88
2022-08-12T15:06:56.418Z,100037.91
2022-08-12T15:09:29.280Z,100025.88
2022-08-12T15:12:03.461Z,100031.00
2022-08-12T15:14:31.947Z,100026.63
2022-08-12T15:17:00.306Z,100023.81
2022-08-12T15:20:10.974Z,100031.00
2022-08-12T15:22:37.407Z,100021.78
2022-08-12T15:25:07.621Z,100025.22
2022-08-12T15:28:04.031Z,100021.94
2022-08-12T15:30:30.522Z,100027.06
2022-08-12T15:32:58.572Z,100023.34
2022-08-12T15:35:38.206Z,100018.94
2022-08-12T15:38:09.926Z,100003.41
2022-08-12T15:40:46.803Z,100016.44
2022-08-12T15:43:35.419Z,100017.53
2022-08-12T15:46:04.838Z,100009.56
2022-08-12T15:48:34.786Z,100011.25
2022-08-12T15:51:03.148Z,100003.78
2022-08-12T15:53:53.257Z,100008.59
2022-08-12T15:56:29.644Z,100003.91
2022-08-12T15:58:59.166Z,100001.72
2022-08-12T16:01:35.426Z,99999.03
2022-08-12T16:04:02.831Z,99999.66
2022-08-12T16:09:45.346Z,100000.16
2022-08-12T16:12:12.047Z,99998.13
2022-08-12T16:14:40.138Z,100012.69
2022-08-12T16:17:09.104Z,100005.19
2022-08-12T16:20:02.772Z,100003.63
2022-08-12T16:22:29.766Z,100001.09
2022-08-12T16:24:57.238Z,100001.88
2022-08-12T16:27:26.050Z,100005.31
2022-08-12T16:29:57.608Z,100002.53
2022-08-12T16:32:31.643Z,100003.72
2022-08-12T16:35:00.106Z,100003.59
2022-08-12T16:38:04.820Z,99997.50
2022-08-12T16:40:18.984Z,99996.25
2022-08-12T16:42:54.407Z,100001.88
2022-08-12T16:45:32.195Z,99996.72
2022-08-12T16:48:34.879Z,99990.44
2022-08-12T16:51:09.573Z,99997.94
2022-08-12T16:53:43.422Z,99993.72
2022-08-12T16:56:14.925Z,99994.78
2022-08-12T16:58:43.343Z,99990.25
2022-08-12T17:01:16.955Z,99991.06
2022-08-12T17:04:08.611Z,99984.16
2022-08-12T17:06:36.702Z,99981.19
2022-08-12T17:09:08.519Z,99982.47
2022-08-12T17:11:43.699Z,99986.06
2022-08-12T17:14:10.806Z,99979.31
2022-08-12T17:16:40.449Z,99985.44
2022-08-12T17:19:09.147Z,99982.94
2022-08-12T17:21:41.831Z,99981.38
2022-08-12T17:24:30.017Z,99982.94
2022-08-12T17:27:00.872Z,99981.69
2022-08-12T17:30:01.355Z,99983.59
2022-08-12T17:32:16.486Z,99993.72
2022-08-12T17:35:08.633Z,99983.88
2022-08-12T17:37:37.085Z,99984.00
2022-08-12T17:40:15.866Z,99981.81
2022-08-12T17:42:48.205Z,99972.72
2022-08-12T17:45:19.746Z,99979.72
2022-08-12T17:48:01.131Z,99975.66
2022-08-12T17:50:38.696Z,99976.72
2022-08-12T17:53:08.063Z,99983.13
2022-08-12T17:55:47.458Z,99988.56
2022-08-12T17:58:17.011Z,99976.63
2022-08-12T18:00:45.729Z,99984.59
2022-08-12T18:03:58.179Z,99982.88
2022-08-12T18:06:14.640Z,99981.25
2022-08-12T18:08:54.604Z,99983.09
2022-08-12T18:12:04.202Z,99980.22
2022-08-12T18:14:30.137Z,99987.66
2022-08-12T18:17:00.354Z,99995.06
2022-08-12T18:19:34.182Z,99986.09
2022-08-12T18:22:21.965Z,99995.69
2022-08-12T18:25:06.411Z,99995.41
2022-08-12T18:27:46.725Z,99990.59
2022-08-12T18:30:21.005Z,99999.06
2022-08-12T18:33:03.492Z,99997.69
2022-08-12T18:35:47.846Z,100001.56
2022-08-12T18:38:19.520Z,100003.63
2022-08-12T18:41:07.582Z,100009.31
2022-08-12T18:43:59.402Z,100004.41
2022-08-12T18:46:53.355Z,99996.66
2022-08-12T18:49:29.662Z,100005.00
2022-08-12T18:52:04.223Z,100022.06
2022-08-12T18:54:34.973Z,100013.41
2022-08-12T18:57:04.763Z,100009.09
2022-08-12T19:00:02.193Z,100015.03
2022-08-12T19:02:23.277Z,100017.50
2022-08-12T19:04:53.208Z,100019.91
2022-08-12T19:07:29.753Z,100015.81
2022-08-12T19:10:13.565Z,100015.84
2022-08-12T19:12:59.087Z,100012.53
2022-08-12T19:15:30.111Z,100013.69
2022-08-12T19:18:03.151Z,100011.13
2022-08-12T19:20:31.699Z,100012.69
2022-08-12T19:23:02.470Z,100017.47
2022-08-12T19:26:01.278Z,100001.94
2022-08-12T19:28:30.352Z,100008.34
2022-08-12T19:31:56.040Z,100008.91
2022-08-12T19:35:32.824Z,100002.41
2022-08-12T19:37:26.822Z,100000.19
2022-08-12T19:40:09.178Z,100005.53
2022-08-12T19:42:57.644Z,100006.19
2022-08-12T19:45:42.284Z,100007.31
2022-08-12T19:48:17.843Z,100005.84
2022-08-12T19:50:50.272Z,100003.53
2022-08-12T19:53:23.044Z,100002.00
2022-08-12T19:55:54.067Z,99997.00
2022-08-12T19:58:22.315Z,99995.22
2022-08-12T20:00:53.163Z,99993.63
2022-08-12T20:03:38.818Z,99984.97
2022-08-12T20:06:16.284Z,99980.03
2022-08-12T20:08:59.767Z,99978.72
2022-08-12T20:12:11.082Z,99969.00
2022-08-12T20:14:18.447Z,99969.34
2022-08-12T20:16:52.638Z,99970.47
2022-08-12T20:19:52.837Z,99977.09
2022-08-12T20:22:24.032Z,99968.16
2022-08-12T20:25:01.465Z,99972.38
2022-08-12T20:28:04.277Z,99975.31
2022-08-12T20:30:20.671Z,99974.53
2022-08-12T20:33:18.392Z,99977.16
2022-08-12T20:36:06.555Z,99974.53
2022-08-12T20:38:37.369Z,99974.53
2022-08-12T20:41:16.183Z,99975.88
2022-08-12T20:43:45.200Z,99975.88
2022-08-12T20:46:13.635Z,99976.97
2022-08-12T20:48:44.265Z,99974.94
2022-08-12T20:51:15.805Z,99965.50
2022-08-12T20:53:57.823Z,99971.34
2022-08-12T20:56:36.886Z,99965.03
2022-08-12T20:59:10.382Z,99968.22
2022-08-12T21:01:47.853Z,99972.97
2022-08-12T21:04:35.289Z,99966.09
2022-08-12T21:07:09.038Z,99968.81
2022-08-12T21:09:42.490Z,99968.28
2022-08-12T21:12:31.565Z,99977.25
2022-08-12T21:15:23.892Z,99980.97
2022-08-12T21:18:00.567Z,99990.53
2022-08-12T21:20:34.974Z,99994.75
2022-08-12T21:23:05.847Z,99986.34
2022-08-12T21:25:44.611Z,99989.25
2022-08-12T21:28:13.462Z,99990.84
2022-08-12T21:31:10.642Z,99990.06
2022-08-12T21:33:31.585Z,99986.13
2022-08-12T21:36:02.569Z,99986.41
2022-08-12T21:38:34.610Z,99986.41
2022-08-12T21:41:09.089Z,99985.09
2022-08-12T21:43:45.170Z,99985.09
2022-08-12T21:46:34.990Z,99980.06
2022-08-12T21:49:05.207Z,99983.78
2022-08-12T21:51:49.031Z,99976.63
2022-08-12T21:54:26.086Z,99980.84
2022-08-12T21:56:54.411Z,99978.19
2022-08-12T21:59:22.088Z,99977.06
2022-08-12T22:01:49.746Z,99980.19
2022-08-12T22:04:35.605Z,99978.78
2022-08-12T22:07:04.548Z,99978.22
2022-08-12T22:09:42.696Z,99983.44
2022-08-12T22:12:29.479Z,99983.84
2022-08-12T22:14:56.464Z,99978.56
2022-08-12T22:17:50.233Z,99982.72
2022-08-12T22:20:21.657Z,99979.81
2022-08-12T22:22:53.824Z,99976.88
2022-08-12T22:25:26.671Z,99985.88
2022-08-12T22:28:12.682Z,99981.16
2022-08-12T22:30:58.312Z,99978.00
2022-08-12T22:33:25.418Z,99989.13
2022-08-12T22:35:59.847Z,99988.63
2022-08-12T22:38:29.129Z,99989.69
2022-08-12T22:41:01.212Z,99983.91
2022-08-12T22:44:00.406Z,99984.19
2022-08-12T22:46:52.545Z,99981.81
2022-08-12T22:49:44.766Z,99980.22
2022-08-12T22:52:12.970Z,99977.09
2022-08-12T22:55:00.172Z,99974.94
2022-08-12T22:57:49.498Z,99974.44
2022-08-12T23:00:27.428Z,99968.06
2022-08-12T23:03:02.675Z,99970.22
2022-08-12T23:05:36.889Z,99968.66
2022-08-12T23:08:23.582Z,99964.94
2022-08-12T23:10:59.148Z,99969.16
2022-08-12T23:13:44.841Z,99959.91
2022-08-12T23:16:27.749Z,99959.66
2022-08-12T23:19:01.745Z,99948.81
2022-08-12T23:21:40.312Z,99948.03
2022-08-12T23:24:26.090Z,99942.22
2022-08-12T23:27:12.892Z,99947.22
2022-08-12T23:29:43.155Z,99943.78
2022-08-12T23:32:13.518Z,99939.31
2022-08-12T23:35:03.501Z,99946.72
2022-08-12T23:37:47.284Z,99935.09
2022-08-12T23:40:22.251Z,99934.28
2022-08-12T23:42:52.695Z,99937.72
2022-08-12T23:45:30.921Z,99933.50
2022-08-12T23:47:59.944Z,99931.38
2022-08-12T23:50:33.441Z,99927.16
2022-08-12T23:53:22.770Z,99931.66
2022-08-12T23:55:49.924Z,99926.38
2022-08-12T23:58:25.681Z,99929.31
